Stations météo

réclame
Mon MeteoGroup
Hohenpeißenberg, Allemagne (10962): Température de l'air & dewpoint: 17.10.2018 08:00:00 - 23.10.2018 08:00:00 (CEST)Hohenpeißenberg, Allemagne (10962): Température de l'air 5cm & Température de l'air -5cm: 17.10.2018 08:00:00 - 23.10.2018 08:00:00 (CEST)Hohenpeißenberg, Allemagne (10962): Température de l'air -20cm & Température de l'air -100cm: 17.10.2018 08:00:00 - 23.10.2018 08:00:00 (CEST)Hohenpeißenberg, Allemagne (10962): Vitesse du vent & gusts: 17.10.2018 08:00:00 - 23.10.2018 08:00:00 (CEST)Hohenpeißenberg, Allemagne (10962): Direction du vent: 17.10.2018 08:00:00 - 23.10.2018 08:00:00 (CEST)Hohenpeißenberg, Allemagne (10962): visibility: 17.10.2018 08:00:00 - 23.10.2018 08:00:00 (CEST)Hohenpeißenberg, Allemagne (10962): Ensoleillement: 17.10.2018 08:00:00 - 23.10.2018 08:00:00 (CEST)Hohenpeißenberg, Allemagne (10962): Quantités de précipitations: 17.10.2018 08:00:00 - 23.10.2018 08:00:00 (CEST)
Date & Time tt [°C] td [°C] tt 5cm [°C] tt -5cm [°C] tt -20cm [°C] tt -100cm [°C] ff [km/h] ff [knt] fx [km/h] fx [knt] dd vv [km] sd [min] rr [mm]
23.10.2018 08:00:00 3,1 1,7 1,9 6,4 9,2 13,6 16 9 23 12 WSW 10 0 0,0
23.10.2018 07:00:00 4,0 2,4 2,2 6,7 9,4 13,6 14 8 19 11 W 10 0 0,0
23.10.2018 06:00:00 3,8 2,1 2,0 7,0 9,6 13,6 13 7 16 9 W 10 0 0,0
23.10.2018 05:00:00 3,7 3,5 3,2 7,3 9,7 13,6 8 5 11 6 SW 0,1 0 0,0
23.10.2018 04:00:00 4,3 3,9 2,6 7,6 9,9 13,6 8 4 13 7 N 2,5 0 0,0
23.10.2018 03:00:00 5,0 2,9 3,9 7,8 10,0 13,6 13 7 25 14 NNE 13 0 0,0
23.10.2018 02:00:00 5,1 2,2 3,6 8,1 10,2 13,7 13 7 16 9 N 18 0 0,0
23.10.2018 01:00:00 6,1 2,2 3,7 8,6 10,3 13,7 5 3 10 5 WSW 23 0 0,0
23.10.2018 00:00:00 6,0 2,0 5,0 9,0 10,4 13,7 6 4 10 5 S 24 0 0,0
22.10.2018 23:00:00 7,1 2,4 6,3 9,1 10,5 13,7 4 2 10 5 N 55 0 0,0
22.10.2018 22:00:00 6,4 2,7 6,0 9,3 10,6 13,7 8 4 16 8 N 60 0 0,0
22.10.2018 21:00:00 7,0 2,8 6,4 9,5 10,8 13,7 10 5 18 10 NNE 60 0 0,0
22.10.2018 20:00:00 6,4 2,4 5,4 9,9 10,9 13,7 14 8 23 12 NNE 70 0 0,0
22.10.2018 19:00:00 6,4 2,1 4,7 10,7 10,9 13,7 11 6 16 9 NNE 80 14 0,0
22.10.2018 18:00:00 7,0 2,1 6,5 11,7 10,8 13,7 7 4 17 9 NE 60 60 0,0
22.10.2018 17:00:00 7,9 1,6 9,8 12,4 10,6 13,7 11 6 16 9 NNE 60 60 0,0
22.10.2018 16:00:00 8,6 1,6 11,4 12,7 10,2 13,8 10 5 17 9 NE 60 60 0,0
22.10.2018 15:00:00 8,4 1,4 11,3 12,6 9,9 13,8 11 6 20 11 NE 60 60 0,0
22.10.2018 14:00:00 8,0 1,5 11,9 12,0 9,5 13,8 10 6 18 10 NE 60 60 0,0
22.10.2018 13:00:00 6,4 0,9 9,7 11,0 9,2 13,8 13 7 21 11 NE 60 60 0,0
22.10.2018 12:00:00 5,5 -0,2 8,8 9,7 9,0 13,8 11 6 18 10 NNE 60 60 0,0
22.10.2018 11:00:00 5,3 -0,2 8,0 8,2 8,9 13,8 7 4 13 7 E 60 60 0,0
22.10.2018 10:00:00 4,6 -0,2 6,3 6,8 9,0 13,8 7 4 16 9 ESE 60 60 0,0
22.10.2018 09:00:00 4,0 -0,5 3,7 5,9 9,2 13,8 11 6 18 10 ESE 60 51 0,0
22.10.2018 08:00:00 3,4 -0,2 2,1 6,0 9,3 13,8 12 6 21 11 E 60 0 0,0
22.10.2018 07:00:00 2,7 0,5 1,2 6,2 9,5 13,8 12 6 19 10 ESE 40 0 0,0
22.10.2018 06:00:00 3,6 0,4 2,2 6,4 9,7 13,8 12 7 17 9 ESE 40 0 0,0
22.10.2018 05:00:00 3,9 0,6 2,3 6,7 9,9 13,8 11 6 14 8 ESE 32 0 0,0
22.10.2018 04:00:00 4,1 0,6 2,2 7,0 10,2 13,9 10 6 18 10 ESE 38 0 0,0
22.10.2018 03:00:00 3,3 -0,1 1,9 7,3 10,4 13,9 13 7 22 12 ENE 45 0 0,0
22.10.2018 02:00:00 3,8 -0,5 2,6 7,6 10,6 13,9 15 8 24 13 ENE 48 0 0,0
22.10.2018 01:00:00 4,9 0,4 3,2 7,9 10,8 13,9 9 5 21 12 E 42 0 0,0
22.10.2018 00:00:00 4,5 0,1 3,1 8,3 11,1 13,9 17 9 23 12 E 53 0 0,0
21.10.2018 23:00:00 4,3 0,2 3,2 8,8 11,3 13,9 16 9 31 17 E 30 0 0,0
21.10.2018 22:00:00 4,7 0,6 3,8 9,3 11,5 13,9 18 10 38 21 E 40 0 0,0
21.10.2018 21:00:00 5,0 0,6 4,0 9,8 11,7 13,9 16 8 29 16 ENE 40 0 0,0
21.10.2018 20:00:00 5,7 0,5 4,8 10,4 11,9 13,9 17 9 27 15 ENE 40 0 0,0
21.10.2018 19:00:00 6,1 -0,2 4,9 11,3 11,9 13,9 12 7 21 12 ENE 50 17 0,0
21.10.2018 18:00:00 6,9 0,9 6,7 12,2 11,9 13,9 11 6 21 11 ENE 30 60 0,0
21.10.2018 17:00:00 7,7 -0,1 9,3 12,9 11,7 13,9 11 6 22 12 ENE 20 59 0,0
21.10.2018 16:00:00 8,3 1,0 10,1 13,3 11,5 13,9 13 7 27 15 ENE 25 55 0,0
21.10.2018 15:00:00 8,2 2,6 10,3 13,1 11,2 13,9 16 9 26 14 NE 30 57 0,0
21.10.2018 14:00:00 7,8 2,7 10,2 12,5 10,9 14,0 11 6 24 13 ENE 15 52 0,0
21.10.2018 13:00:00 7,6 2,3 10,2 11,3 10,7 14,0 14 7 21 12 ENE 12 48 0,0
21.10.2018 12:00:00 6,6 4,2 9,0 10,0 10,6 14,0 12 6 23 12 ENE 12 13 0,0
21.10.2018 11:00:00 5,9 3,7 7,2 9,6 10,6 14,0 16 9 24 13 NE 9 0 0,0
21.10.2018 10:00:00 6,4 5,0 7,5 8,9 10,6 14,0 6 3 11 6 NE 9 0 0,0
21.10.2018 09:00:00 6,9 3,1 6,8 8,6 10,7 14,0 6 3 14 7 ENE 18 0 0,0
21.10.2018 08:00:00 7,0 2,4 6,4 8,5 10,7 14,0 7 4 13 7 ENE 18 0 0,0
21.10.2018 07:00:00 6,7 3,6 6,1 8,5 10,8 14,0 4 2 18 10 SSE 8 0 0,0
21.10.2018 06:00:00 7,1 3,0 6,5 8,5 10,9 14,0 9 5 20 11 NNE 8 0 0,0
21.10.2018 05:00:00 7,2 5,7 6,7 8,5 11,1 14,0 14 8 18 10 N 4,7 0 0,0
21.10.2018 04:00:00 7,5 5,6 6,2 8,4 11,2 14,0 11 6 12 6 N 5 0 0,0
21.10.2018 03:00:00 8,6 5,2 6,3 8,3 11,4 14,0 6 3 7 4 NNW 9 0 0,0
21.10.2018 02:00:00 8,7 5,0 3,8 8,7 11,6 14,0 0 0 8 4 N 9 0 0,0
21.10.2018 01:00:00 8,8 5,5 6,3 9,1 11,8 14,0 8 4 12 6 NNE 9 0 0,0
21.10.2018 00:00:00 8,7 5,8 4,9 9,5 12,0 14,0 2 1 7 4 N 10 0 0,0
20.10.2018 23:00:00 9,3 5,9 6,3 10,1 12,2 14,0 0 0 5 3 N 8 0 0,0
20.10.2018 22:00:00 9,5 5,9 7,8 10,6 12,4 14,0 2 1 6 4 SE 8 0 0,0
20.10.2018 21:00:00 9,4 6,0 8,6 10,6 12,6 14,1 7 4 9 5 ESE 10 0 0,0
20.10.2018 20:00:00 9,2 6,1 7,6 11,2 12,8 14,1 6 4 18 10 ENE 10 0 0,0
20.10.2018 19:00:00 9,1 6,1 8,0 12,0 12,9 14,1 13 7 18 10 NNE 10 0 0,0
20.10.2018 18:00:00 9,5 6,7 8,9 13,3 12,9 14,1 14 7 17 9 NNE 10 30 0,0
20.10.2018 17:00:00 10,5 6,7 10,7 14,3 12,7 14,1 9 5 16 9 NE 10 8 0,0
20.10.2018 16:00:00 11,6 6,7 12,5 15,1 12,4 14,1 10 6 22 12 NNE 10 24 0,0
20.10.2018 15:00:00 11,8 6,5 15,2 15,1 12,1 14,1 8 5 18 10 NNE 10 49 0,0
20.10.2018 14:00:00 11,5 6,6 14,2 14,0 11,9 14,1 12 7 18 10 NNE 8 28 0,0
20.10.2018 13:00:00 10,6 6,5 11,1 12,7 11,7 14,1 5 3 11 6 ENE 8 11 0,0
20.10.2018 12:00:00 9,6 7,7 10,5 12,9 11,5 14,1 6 4 11 6 NNE 8 31 0,0
20.10.2018 11:00:00 11,2 7,9 11,3 11,3 11,4 14,1 8 4 12 7 S 8 32 0,0
20.10.2018 10:00:00 8,5 7,4 8,7 10,0 11,4 14,1 6 3 8 4 SW 8 0 0,0
20.10.2018 09:00:00 8,3 7,5 8,2 9,3 11,5 14,1 0 0 9 5 N 8 0 0,0
20.10.2018 08:00:00 8,4 7,5 7,7 8,6 11,7 14,1 7 4 11 6 NE 8 0 0,0
20.10.2018 07:00:00 7,4 6,9 5,3 8,9 11,9 14,1 0 0 6 4 N 12 0 0,0
20.10.2018 06:00:00 8,2 7,6 5,7 9,3 12,1 14,1 2 1 10 5 ESE 18 0 0,0
20.10.2018 05:00:00 8,3 7,5 6,1 9,9 12,3 14,1 5 3 9 5 ESE 3,2 0 0,0
20.10.2018 04:00:00 8,3 7,5 6,5 10,7 12,4 14,1 6 3 8 4 SE 2,2 0 0,0
20.10.2018 03:00:00 9,2 8,4 9,1 11,1 12,5 14,1 3 1 11 6 E 1,6 0 0,0
20.10.2018 02:00:00 9,6 8,8 9,5 11,1 12,6 14,1 6 3 9 5 ENE 2,0 0 0,0
20.10.2018 01:00:00 9,3 8,8 8,8 11,0 12,7 14,1 5 3 10 5 NNE 1,2 0 0,0
20.10.2018 00:00:00 9,6 8,9 8,8 11,1 12,9 14,1 7 4 15 8 ENE 1,8 0 0,0
19.10.2018 23:00:00 9,9 8,6 9,2 11,3 13,1 14,2 8 4 15 8 ENE 3,0 0 0,0
19.10.2018 22:00:00 10,0 8,7 9,1 11,5 13,3 14,2 10 6 19 10 ENE 8 0 0,0
19.10.2018 21:00:00 9,9 8,6 8,7 11,8 13,5 14,2 10 6 18 10 ENE 8 0 0,0
19.10.2018 20:00:00 10,0 8,0 8,7 12,5 13,7 14,2 9 5 18 10 ENE 8 0 0,0
19.10.2018 19:00:00 10,4 7,9 9,1 13,5 13,9 14,2 10 6 19 10 ENE 8 0 0,0
19.10.2018 18:00:00 11,0 8,6 10,4 14,9 13,9 14,2 10 6 16 9 ENE 8 30 0,0
19.10.2018 17:00:00 11,5 9,0 12,7 16,5 13,7 14,2 11 6 19 11 NNE 8 60 0,0
19.10.2018 16:00:00 12,1 8,6 14,4 17,3 13,4 14,2 13 7 24 13 NE 7 60 0,0
19.10.2018 15:00:00 12,2 8,4 15,4 17,6 13,0 14,2 14 7 24 13 NE 7 60 0,0
19.10.2018 14:00:00 11,5 8,1 14,8 17,1 12,5 14,2 16 8 24 13 ENE 7 60 0,0
19.10.2018 13:00:00 11,0 7,1 14,6 16,0 12,1 14,2 11 6 18 10 ENE 10 60 0,0
19.10.2018 12:00:00 11,2 6,9 14,2 14,2 11,8 14,2 7 4 16 9 ENE 18 60 0,0
19.10.2018 11:00:00 10,0 6,6 12,4 12,2 11,7 14,2 9 5 14 7 ENE 18 60 0,0
19.10.2018 10:00:00 9,7 6,9 11,4 10,4 11,7 14,2 6 4 14 8 E 18 60 0,0
19.10.2018 09:00:00 9,0 6,2 8,3 9,3 11,9 14,2 9 5 16 9 SE 12 46 0,0
19.10.2018 08:00:00 8,6 6,8 7,2 9,3 12,0 14,2 10 5 19 10 E 12 0 0,0
19.10.2018 07:00:00 8,6 6,9 7,1 9,5 12,2 14,2 8 5 16 8 E 4,0 0 0,0
19.10.2018 06:00:00 9,2 7,0 8,0 9,8 12,4 14,2 11 6 16 9 E 8 0 0,0
19.10.2018 05:00:00 9,5 7,6 8,1 10,1 12,5 14,2 10 5 17 9 E 4,0 0 0,0
19.10.2018 04:00:00 10,1 7,9 8,6 10,3 12,7 14,2 11 6 18 10 E 7 0 0,0
19.10.2018 03:00:00 10,5 7,8 9,1 10,6 12,9 14,2 11 6 18 10 E 7 0 0,0
19.10.2018 02:00:00 10,4 8,1 9,1 10,9 13,1 14,2 12 6 21 12 E 6 0 0,0
19.10.2018 01:00:00 10,7 8,2 9,4 11,1 13,3 14,2 13 7 19 10 ENE 3,0 0 0,0
19.10.2018 00:00:00 11,0 8,0 9,7 11,5 13,5 14,2 12 7 20 11 E 4,0 0 0,0
18.10.2018 23:00:00 11,4 8,3 10,1 11,8 13,7 14,2 11 6 19 10 E 7 0 0,0
18.10.2018 22:00:00 11,2 7,7 9,9 12,2 13,9 14,2 11 6 24 13 E 8 0 0,0
18.10.2018 21:00:00 11,5 7,5 10,2 12,8 14,1 14,2 16 9 26 14 NE 10 0 0,0
18.10.2018 20:00:00 11,5 7,9 10,1 13,5 14,3 14,2 18 10 25 14 NE 10 0 0,0
18.10.2018 19:00:00 11,8 8,0 10,5 14,5 14,4 14,2 15 8 20 11 NNE 10 0 0,0
18.10.2018 18:00:00 12,3 8,2 11,5 16,0 14,4 14,3 12 6 17 9 NE 10 51 0,0
18.10.2018 17:00:00 13,6 7,9 14,8 17,6 14,2 14,3 12 7 22 12 NNE 12 60 0,0
18.10.2018 16:00:00 14,3 8,7 16,4 18,3 13,8 14,3 12 7 20 11 NNE 15 60 0,0
18.10.2018 15:00:00 14,3 8,0 18,0 18,3 13,4 14,3 12 6 23 12 NE 20 60 0,0
18.10.2018 14:00:00 13,6 6,6 16,7 17,5 13,0 14,3 14 7 22 12 NE 25 60 0,0
18.10.2018 13:00:00 13,4 6,8 16,6 16,3 12,6 14,3 13 7 19 11 NE 30 60 0,0
18.10.2018 12:00:00 12,9 5,2 15,7 14,4 12,3 14,3 10 5 18 10 ENE 35 60 0,0
18.10.2018 11:00:00 12,6 5,0 14,2 12,6 12,2 14,3 11 6 21 12 ENE 35 60 0,0
18.10.2018 10:00:00 11,9 5,4 12,6 11,1 12,2 14,3 12 6 19 10 ENE 35 59 0,0
18.10.2018 09:00:00 11,2 5,6 10,6 10,2 12,3 14,3 14 7 19 10 E 35 27 0,0
18.10.2018 08:00:00 10,8 5,8 9,5 10,1 12,5 14,3 13 7 21 11 E 40 0 0,0
18.10.2018 07:00:00 11,1 6,1 9,6 10,2 12,6 14,3 14 8 22 12 E 55 0 0,0
18.10.2018 06:00:00 10,7 6,5 9,4 10,4 12,8 14,3 11 6 17 9 E 40 0 0,0
18.10.2018 05:00:00 11,0 7,0 9,7 10,5 12,9 14,3 11 6 17 9 E 40 0 0,0
18.10.2018 04:00:00 10,9 6,6 9,3 10,7 13,1 14,3 10 5 16 9 ENE 40 0 0,0
18.10.2018 03:00:00 11,2 6,3 9,6 11,0 13,3 14,3 11 6 17 9 ENE 40 0 0,0
18.10.2018 02:00:00 11,6 5,6 9,5 11,2 13,5 14,3 10 6 14 8 E 45 0 0,0
18.10.2018 01:00:00 12,2 5,4 10,2 11,6 13,8 14,3 10 5 17 9 E 45 0 0,0
18.10.2018 00:00:00 11,8 6,0 10,2 12,0 14,0 14,3 12 6 25 13 ENE 42 0 0,0
17.10.2018 23:00:00 12,0 6,8 10,7 12,4 14,2 14,3 16 9 24 13 ENE 45 0 0,0
17.10.2018 22:00:00 12,1 7,2 10,7 12,9 14,4 14,3 14 8 25 14 ENE 60 0 0,0
17.10.2018 21:00:00 12,4 7,5 11,0 13,5 14,7 14,3 16 8 23 12 ENE 60 0 0,0
17.10.2018 20:00:00 12,9 5,7 11,4 14,3 14,9 14,3 12 7 23 12 E 40 0 0,0
17.10.2018 19:00:00 13,5 5,7 12,1 15,4 15,0 14,3 13 7 21 12 ENE 40 12 0,0
17.10.2018 18:00:00 14,3 6,5 13,9 17,2 14,9 14,3 12 6 19 10 ENE 40 60 0,0
17.10.2018 17:00:00 15,4 7,2 17,8 18,6 14,7 14,3 8 4 16 9 NE 30 60 0,0
17.10.2018 16:00:00 15,6 6,7 17,9 19,3 14,3 14,3 9 5 17 9 NE 30 60 0,0
17.10.2018 15:00:00 15,7 5,8 18,7 19,5 13,8 14,3 11 6 18 10 NE 30 60 0,0
17.10.2018 14:00:00 14,8 5,3 17,9 18,8 13,3 14,3 10 6 16 9 ENE 35 60 0,0
17.10.2018 13:00:00 15,2 4,4 19,0 17,7 12,8 14,3 8 5 13 7 ENE 35 60 0,0
17.10.2018 12:00:00 14,9 5,9 17,5 15,8 12,5 14,3 4 2 11 6 NNE 30 60 0,0
17.10.2018 11:00:00 13,9 4,6 16,6 13,3 12,3 14,3 5 3 12 7 NE 30 60 0,0
17.10.2018 10:00:00 12,5 3,4 14,8 11,3 12,3 14,3 8 4 9 5 NNW 40 60 0,0
17.10.2018 09:00:00 12,4 2,8 11,3 9,8 12,5 14,3 8 4 10 6 WSW 60 47 0,0
17.10.2018 08:00:00 11,2 3,5 8,5 9,7 12,6 14,3 7 4 13 7 SW 60 0 0,0

tt = Température de l'air
td = dewpoint
tt 5cm = Température de l'air 5cm
tt -5cm = Température de l'air -5cm
tt -20cm = Température de l'air -20cm
tt -100cm = Température de l'air -100cm
ff = Vitesse du vent
fx = gusts
dd = Direction du vent
vv = visibility
sd = Ensoleillement
rr = Quantités de précipitations

stations d'obs. à proximité